Gwendolyn Grace — WDA9775 — position and weather

sailwx.info

Track history (hours):
 
Tides and Currents Weather Stations Pressure Air Temp Water Temp Dewpoint Dewpoint Depression Visibility Wind Speed Wind Dir Waves Ship Positions

Gwendolyn Grace

Owner: MARINE EXPRESS, ALAMEDA, CA. More information available from US FCC via Universal Licensing System and Coast Guard Vessel Documentation Center.

Last reported at 2017-Nov-07 19:20 UTC. Time now 2017-Nov-24 14:59 UTC.
Position N 37°47' W 122°17'.
Warning: this ship's position is 16 days out of date.

Length 18 m; draft 6 m.

Type: Pilot. MMSI: 366868850.

Date/timePositionNaut miles runAvg speedWind from/ knotsBaromVisibWave heightAir tempDewpointWater temp
2017-Nov-07 19:20N 37°47' W 122°17'0 0.4
2017-Nov-07 19:00N 37°47' W 122°17'0 0.0
2017-Nov-07 18:30N 37°47' W 122°17'0 0.0
2017-Nov-07 18:00N 37°47' W 122°17'0 0.0
2017-Nov-07 17:30N 37°47' W 122°17'0 0.0
2017-Nov-07 17:00N 37°47' W 122°17'0 0.0
2017-Nov-07 16:31N 37°47' W 122°17'0 0.0
2017-Nov-07 16:00N 37°47' W 122°17'  
2017-Nov-03 16:09N 37°47' W 122°17'0 0.1
2017-Nov-03 16:01N 37°47' W 122°17'0 0.1
2017-Nov-03 15:30N 37°47' W 122°17'0 0.3
2017-Nov-03 15:00N 37°47' W 122°17'0 0.0
2017-Nov-02 21:56N 37°47' W 122°17'0 0.2
2017-Nov-02 21:30N 37°47' W 122°17'0 0.2
2017-Nov-02 21:00N 37°47' W 122°17'0 0.0
2017-Nov-02 20:30N 37°47' W 122°17'0 0.0
2017-Oct-31 19:58N 37°47' W 122°17'0 0.3
2017-Oct-31 19:30N 37°48' W 122°17'0 0.3
2017-Oct-31 19:00N 37°48' W 122°18'0 0.3
2017-Oct-31 18:31N 37°47' W 122°17'0 0.2
2017-Oct-31 18:00N 37°47' W 122°18'0 0.0
2017-Oct-29 18:51N 37°47' W 122°17'0 0.5
2017-Oct-29 18:30N 37°48' W 122°17'0 0.3
2017-Oct-29 18:00N 37°47' W 122°17'0 0.0
2017-Oct-29 15:42N 37°47' W 122°17'0 0.5
2017-Oct-29 15:31N 37°47' W 122°17'0 0.1
2017-Oct-29 15:01N 37°47' W 122°17'0 0.1
2017-Oct-29 14:30N 37°47' W 122°17'  
Track history (hours):
 
Tides and Currents Weather Stations Pressure Air Temp Water Temp Dewpoint Dewpoint Depression Visibility Wind Speed Wind Dir Waves Ship Positions

Gwendolyn Grace

Owner: MARINE EXPRESS, ALAMEDA, CA. More information available from US FCC via Universal Licensing System and Coast Guard Vessel Documentation Center.

Last reported at 2017-Nov-07 19:20 UTC. Time now 2017-Nov-24 14:59 UTC.
Position N 37°47' W 122°17'.
Warning: this ship's position is 16 days out of date.

Length 18 m; draft 6 m.

Type: Pilot. MMSI: 366868850.

Date/timePositionNaut miles runAvg speedWind from/ knotsBaromVisibWave heightAir tempDewpointWater temp
2017-Nov-07 19:20N 37°47' W 122°17'0 0.4
2017-Nov-07 19:00N 37°47' W 122°17'0 0.0
2017-Nov-07 18:30N 37°47' W 122°17'0 0.0
2017-Nov-07 18:00N 37°47' W 122°17'0 0.0
2017-Nov-07 17:30N 37°47' W 122°17'0 0.0
2017-Nov-07 17:00N 37°47' W 122°17'0 0.0
2017-Nov-07 16:31N 37°47' W 122°17'0 0.0
2017-Nov-07 16:00N 37°47' W 122°17'  
2017-Nov-03 16:09N 37°47' W 122°17'0 0.1
2017-Nov-03 16:01N 37°47' W 122°17'0 0.1
2017-Nov-03 15:30N 37°47' W 122°17'0 0.3
2017-Nov-03 15:00N 37°47' W 122°17'0 0.0
2017-Nov-02 21:56N 37°47' W 122°17'0 0.2
2017-Nov-02 21:30N 37°47' W 122°17'0 0.2
2017-Nov-02 21:00N 37°47' W 122°17'0 0.0
2017-Nov-02 20:30N 37°47' W 122°17'0 0.0
2017-Oct-31 19:58N 37°47' W 122°17'0 0.3
2017-Oct-31 19:30N 37°48' W 122°17'0 0.3
2017-Oct-31 19:00N 37°48' W 122°18'0 0.3
2017-Oct-31 18:31N 37°47' W 122°17'0 0.2
2017-Oct-31 18:00N 37°47' W 122°18'0 0.0
2017-Oct-29 18:51N 37°47' W 122°17'0 0.5
2017-Oct-29 18:30N 37°48' W 122°17'0 0.3
2017-Oct-29 18:00N 37°47' W 122°17'0 0.0
2017-Oct-29 15:42N 37°47' W 122°17'0 0.5
2017-Oct-29 15:31N 37°47' W 122°17'0 0.1
2017-Oct-29 15:01N 37°47' W 122°17'0 0.1
2017-Oct-29 14:30N 37°47' W 122°17'  

Dump ship's entire track history